Time;durP1;ratioP1;P1;durP2;ratioP2;P2;SDS_P1;SDS_P2;PMS_P1;PMS_P2;Temp;Humidity;BMP_temperature;BMP_pressure;BME280_temperature;BME280_humidity;BME280_pressure;Samples;Min_cycle;Max_cycle;Signal;HPM_P1;HPM_P2
2023/12/08 00:00:31;;;;;;;17.80;13.95;;;;;;;4.81;86.49;100898.28;5048452;28;20028;-79
2023/12/08 00:02:57;;;;;;;19.95;14.73;;;;;;;4.81;86.44;100904.50;5049066;28;20566;-80
2023/12/08 00:05:22;;;;;;;20.08;14.90;;;;;;;4.69;85.63;100898.94;5048590;28;20452;-79
2023/12/08 00:07:48;;;;;;;19.95;14.52;;;;;;;4.67;84.86;100907.03;5048481;28;20113;-79
2023/12/08 00:10:13;;;;;;;20.23;14.75;;;;;;;4.71;85.27;100918.41;5048533;28;20401;-78
2023/12/08 00:12:39;;;;;;;20.50;15.30;;;;;;;4.77;85.43;100915.41;5048141;28;20082;-78
2023/12/08 00:15:05;;;;;;;19.65;14.45;;;;;;;4.66;84.96;100899.13;5048141;28;20025;-80
2023/12/08 00:17:31;;;;;;;18.20;13.50;;;;;;;4.50;84.63;100887.53;5048621;28;20098;-80
2023/12/08 00:19:57;;;;;;;19.70;14.68;;;;;;;4.37;84.64;100880.19;5048858;28;20501;-79
2023/12/08 00:22:22;;;;;;;20.08;13.68;;;;;;;4.56;84.90;100906.72;5048221;28;20078;-79
2023/12/08 00:24:48;;;;;;;19.77;14.70;;;;;;;4.47;85.62;100866.38;5048369;28;20053;-79
2023/12/08 00:27:14;;;;;;;24.55;15.48;;;;;;;4.44;85.75;100880.72;5057632;28;20032;-78
2023/12/08 00:29:39;;;;;;;21.33;14.65;;;;;;;4.52;85.69;100899.84;5060211;28;20032;-78
2023/12/08 00:32:05;;;;;;;21.05;14.77;;;;;;;4.32;85.64;100878.69;5048927;28;20120;-78
2023/12/08 00:34:31;;;;;;;22.52;15.55;;;;;;;4.45;85.38;100884.25;5029203;28;20079;-78
2023/12/08 00:36:57;;;;;;;23.33;15.30;;;;;;;4.46;85.09;100891.31;5048094;28;20611;-81
2023/12/08 00:39:23;;;;;;;20.52;15.55;;;;;;;4.48;85.77;100889.44;5047699;28;20420;-80
2023/12/08 00:41:48;;;;;;;18.38;13.13;;;;;;;4.46;85.52;100884.19;5048136;28;20024;-80
2023/12/08 00:44:14;;;;;;;20.00;14.95;;;;;;;4.51;85.54;100881.28;5047893;28;20036;-78
2023/12/08 00:46:39;;;;;;;18.88;14.02;;;;;;;4.56;85.04;100881.88;5048394;28;20393;-80
2023/12/08 00:49:05;;;;;;;17.75;13.48;;;;;;;4.62;85.28;100884.22;5048111;28;20103;-79
2023/12/08 00:51:30;;;;;;;20.08;13.55;;;;;;;4.70;85.75;100887.34;5048253;28;20032;-79
2023/12/08 00:53:56;;;;;;;23.50;15.70;;;;;;;4.72;85.30;100889.00;5045742;28;20060;-78
2023/12/08 00:56:22;;;;;;;18.33;13.80;;;;;;;4.65;84.56;100881.41;5048206;28;20056;-78
2023/12/08 00:58:48;;;;;;;21.73;14.73;;;;;;;4.67;83.87;100871.53;5047887;28;20060;-79
2023/12/08 01:01:13;;;;;;;17.70;13.77;;;;;;;4.72;83.58;100889.00;5048319;28;20033;-79
2023/12/08 01:03:39;;;;;;;19.65;15.02;;;;;;;4.69;83.14;100880.31;5047923;28;20098;-78
2023/12/08 01:06:04;;;;;;;20.67;14.88;;;;;;;4.80;82.91;100889.44;5047899;28;20467;-78
2023/12/08 01:08:30;;;;;;;18.20;14.10;;;;;;;4.78;83.14;100887.81;5047955;28;20029;-80
2023/12/08 01:10:55;;;;;;;19.08;13.57;;;;;;;4.85;82.85;100889.22;5047973;28;20032;-78
2023/12/08 01:13:21;;;;;;;18.50;12.85;;;;;;;4.72;82.14;100883.66;5048425;28;20068;-78
2023/12/08 01:15:47;;;;;;;15.13;11.55;;;;;;;4.69;81.88;100882.97;5048120;28;20032;-77
2023/12/08 01:18:13;;;;;;;21.77;12.23;;;;;;;4.44;82.08;100837.25;5055878;28;20404;-81
2023/12/08 01:20:38;;;;;;;18.60;13.73;;;;;;;4.58;81.66;100861.38;5060559;28;20025;-80
2023/12/08 01:23:04;;;;;;;16.23;12.65;;;;;;;4.62;82.11;100881.56;5050582;28;20025;-79
2023/12/08 01:25:29;;;;;;;20.13;13.20;;;;;;;4.32;82.29;100842.28;5048063;28;20528;-79
2023/12/08 01:27:55;;;;;;;17.30;11.48;;;;;;;4.35;82.28;100868.75;5047392;28;20067;-79
2023/12/08 01:30:21;;;;;;;22.50;14.88;;;;;;;4.22;83.00;100857.00;5047755;28;20624;-79
2023/12/08 01:32:46;;;;;;;20.27;14.10;;;;;;;4.23;84.00;100864.06;5047601;28;20028;-78
2023/12/08 01:35:12;;;;;;;19.40;14.23;;;;;;;4.23;84.17;100864.06;5047874;28;20067;-79
2023/12/08 01:37:37;;;;;;;19.55;14.68;;;;;;;4.21;84.47;100865.09;5047608;28;20021;-78
2023/12/08 01:40:04;;;;;;;18.42;13.32;;;;;;;4.28;84.60;100859.34;5050184;28;20029;-78
2023/12/08 01:42:29;;;;;;;20.40;14.05;;;;;;;4.34;84.87;100856.38;5051164;28;20029;-79
2023/12/08 01:44:55;;;;;;;22.25;15.38;;;;;;;4.36;84.52;100843.88;5051213;28;20084;-78
2023/12/08 01:47:21;;;;;;;23.15;15.85;;;;;;;4.49;84.00;100844.09;5051416;28;20106;-79
2023/12/08 01:49:47;;;;;;;23.27;15.77;;;;;;;4.54;83.93;100843.81;5048777;28;20133;-79
2023/12/08 01:52:21;;;;;;;21.50;15.13;;;;;;;4.54;83.51;100830.50;5051274;28;20442;-77
2023/12/08 01:54:48;;;;;;;20.38;13.15;;;;;;;4.49;83.48;100843.22;5050926;28;20024;-78
2023/12/08 01:57:14;;;;;;;20.85;14.55;;;;;;;4.51;83.12;100847.53;5050815;28;20025;-78
2023/12/08 01:59:39;;;;;;;20.23;14.60;;;;;;;4.49;83.17;100859.19;5051400;28;20039;-79
2023/12/08 02:02:05;;;;;;;24.55;15.75;;;;;;;4.38;82.88;100844.63;5050865;28;20032;-79
2023/12/08 02:04:30;;;;;;;23.02;14.57;;;;;;;4.46;82.96;100856.69;5051517;28;20036;-78
2023/12/08 02:06:57;;;;;;;24.80;17.38;;;;;;;4.56;83.45;100860.56;5051233;28;20025;-79
2023/12/08 02:09:23;;;;;;;21.77;15.20;;;;;;;4.57;83.30;100872.97;5058858;28;20424;-79
2023/12/08 02:11:49;;;;;;;22.30;15.40;;;;;;;4.49;82.82;100877.84;5063860;28;20397;-78
2023/12/08 02:14:15;;;;;;;21.50;14.02;;;;;;;4.46;81.87;100891.31;5055264;28;20052;-78
2023/12/08 02:17:01;;;;;;;24.00;15.90;;;;;;;4.49;82.13;100892.03;5050633;28;20029;-78
2023/12/08 02:19:27;;;;;;;25.38;15.93;;;;;;;4.52;82.59;100877.69;5031809;28;20088;-79
2023/12/08 02:21:53;;;;;;;24.23;16.75;;;;;;;4.55;82.40;100890.84;5050586;28;20492;-78
2023/12/08 02:24:19;;;;;;;24.02;16.08;;;;;;;4.36;82.23;100862.50;5048443;28;20037;-77
2023/12/08 02:26:49;;;;;;;24.48;15.88;;;;;;;4.54;82.27;100894.44;5050539;28;20025;-78
2023/12/08 02:29:15;;;;;;;25.80;15.18;;;;;;;4.45;82.81;100878.94;5047987;28;20052;-78
2023/12/08 02:31:47;;;;;;;22.75;15.23;;;;;;;4.47;82.40;100885.03;5050357;28;20032;-78
2023/12/08 02:34:18;;;;;;;23.52;15.27;;;;;;;4.50;82.31;100882.19;5050380;28;20025;-78
2023/12/08 02:36:46;;;;;;;26.63;18.38;;;;;;;4.60;82.33;100896.78;5050302;28;20033;-77
2023/12/08 02:39:15;;;;;;;23.92;15.73;;;;;;;4.64;82.17;100877.03;5047941;28;20048;-78
2023/12/08 02:41:42;;;;;;;21.55;14.30;;;;;;;4.42;80.95;100876.44;5050102;28;20512;-77
2023/12/08 02:44:07;;;;;;;20.80;14.02;;;;;;;4.52;81.11;100891.00;5050153;28;20404;-78
2023/12/08 02:46:33;;;;;;;21.90;13.68;;;;;;;4.51;81.07;100900.78;5050451;28;20234;-78
2023/12/08 02:48:58;;;;;;;20.45;14.68;;;;;;;4.56;81.27;100911.19;5049992;28;20095;-78
2023/12/08 02:51:24;;;;;;;22.27;15.93;;;;;;;4.57;81.42;100919.09;5049338;28;20025;-77
2023/12/08 02:53:49;;;;;;;21.75;15.25;;;;;;;4.51;81.31;100926.53;5050010;28;20463;-79
2023/12/08 02:56:15;;;;;;;25.65;17.17;;;;;;;4.48;81.76;100916.91;5047934;28;20033;-78
2023/12/08 02:58:40;;;;;;;25.27;15.98;;;;;;;4.47;81.78;100911.66;5049893;28;20872;-78
2023/12/08 03:01:06;;;;;;;22.23;15.27;;;;;;;4.52;81.49;100936.28;5058919;28;20071;-79
2023/12/08 03:03:31;;;;;;;26.35;14.48;;;;;;;4.58;81.86;100938.63;5062292;28;20032;-79
2023/12/08 03:05:57;;;;;;;22.90;15.88;;;;;;;4.56;82.15;100940.47;5051832;28;20055;-77
2023/12/08 03:08:22;;;;;;;25.55;15.52;;;;;;;4.34;81.87;100891.00;5049599;28;20036;-78
2023/12/08 03:10:48;;;;;;;21.50;14.20;;;;;;;4.52;81.75;100934.47;5050152;28;20102;-77
2023/12/08 03:13:13;;;;;;;24.83;14.57;;;;;;;4.49;81.42;100915.13;5049905;28;20021;-78
2023/12/08 03:15:39;;;;;;;22.00;13.80;;;;;;;4.67;81.08;100940.81;5049385;28;20112;-80
2023/12/08 03:18:04;;;;;;;22.48;14.40;;;;;;;4.44;81.02;100895.84;5049588;28;20040;-80
2023/12/08 03:20:30;;;;;;;18.17;12.93;;;;;;;4.52;80.02;100914.97;5049354;28;20048;-77
2023/12/08 03:22:55;;;;;;;16.42;12.20;;;;;;;4.64;80.20;100956.94;5049485;28;20116;-78
2023/12/08 03:25:21;;;;;;;20.38;14.23;;;;;;;4.41;80.44;100942.13;5049226;28;20052;-77
2023/12/08 03:27:46;;;;;;;23.15;14.52;;;;;;;4.38;80.91;100943.16;5049753;28;20032;-78
2023/12/08 03:30:13;;;;;;;19.13;13.02;;;;;;;4.34;80.86;100948.72;5049310;28;20032;-78
2023/12/08 03:32:38;;;;;;;19.92;14.35;;;;;;;4.26;80.46;100959.75;5048982;28;20021;-78
2023/12/08 03:35:04;;;;;;;19.60;14.30;;;;;;;4.26;80.86;100956.22;5048993;28;20051;-77
2023/12/08 03:37:30;;;;;;;20.92;14.48;;;;;;;4.26;80.65;100959.75;5049138;28;20370;-77
2023/12/08 03:39:55;;;;;;;17.33;12.90;;;;;;;4.10;81.17;100947.28;5049274;28;20382;-78
2023/12/08 03:42:21;;;;;;;19.05;13.20;;;;;;;4.12;81.09;100946.28;5048992;28;20040;-78
2023/12/08 03:44:46;;;;;;;19.85;14.25;;;;;;;4.22;81.57;100963.50;5049147;28;20094;-78
2023/12/08 03:47:12;;;;;;;18.75;13.45;;;;;;;3.99;82.10;100934.50;5049859;28;20103;-78
2023/12/08 03:49:37;;;;;;;19.00;12.68;;;;;;;4.07;81.63;100964.25;5049101;28;20036;-78
2023/12/08 03:52:03;;;;;;;17.13;12.02;;;;;;;3.87;81.87;100961.72;5056149;28;20056;-78
2023/12/08 03:54:29;;;;;;;16.40;12.32;;;;;;;3.75;82.34;100971.16;5058464;28;20029;-79
2023/12/08 03:56:54;;;;;;;21.92;14.32;;;;;;;3.62;83.34;100966.47;5051202;28;20021;-77
2023/12/08 03:59:20;;;;;;;19.75;14.27;;;;;;;3.48;83.45;100974.25;5048653;28;20103;-78
2023/12/08 04:01:45;;;;;;;21.95;14.38;;;;;;;3.21;83.66;100937.38;5048892;28;20050;-78
2023/12/08 04:04:12;;;;;;;22.80;15.30;;;;;;;3.18;84.56;100961.44;5048262;28;20029;-77
2023/12/08 04:06:38;;;;;;;20.60;14.55;;;;;;;3.06;85.23;100929.25;5048239;28;20448;-78
2023/12/08 04:09:03;;;;;;;22.35;14.55;;;;;;;3.18;85.38;100964.09;5048246;28;20035;-78
2023/12/08 04:11:29;;;;;;;27.48;16.38;;;;;;;3.14;85.67;100965.19;5048354;28;20021;-78
2023/12/08 04:13:54;;;;;;;27.00;16.88;;;;;;;3.00;85.87;100950.78;5048540;28;20029;-78
2023/12/08 04:16:20;;;;;;;25.63;15.90;;;;;;;2.84;86.15;100939.13;5048477;28;20025;-79
2023/12/08 04:18:45;;;;;;;27.15;17.23;;;;;;;2.90;86.45;100965.41;5047478;28;20064;-78
2023/12/08 04:21:20;;;;;;;23.98;15.95;;;;;;;2.92;86.89;100963.53;5048391;28;20443;-78
2023/12/08 04:23:45;;;;;;;27.38;17.50;;;;;;;2.86;87.15;100959.38;5046286;28;20040;-79
2023/12/08 04:26:11;;;;;;;25.90;16.45;;;;;;;2.76;87.40;100942.13;5047824;28;20151;-78
2023/12/08 04:28:38;;;;;;;29.15;17.48;;;;;;;2.87;87.71;100955.81;5047947;28;20036;-78
2023/12/08 04:31:04;;;;;;;33.67;19.35;;;;;;;2.95;87.59;100963.41;5048137;28;20032;-79
2023/12/08 04:33:30;;;;;;;27.48;16.73;;;;;;;2.97;87.38;100950.91;5047745;28;20028;-78
2023/12/08 04:35:55;;;;;;;31.75;17.17;;;;;;;2.96;87.50;100955.38;5048506;28;20405;-78
2023/12/08 04:38:21;;;;;;;34.55;19.50;;;;;;;3.04;87.89;100947.06;5048494;28;20029;-78
2023/12/08 04:40:46;;;;;;;31.30;18.98;;;;;;;3.11;87.42;100941.41;5048509;28;20048;-79
2023/12/08 04:43:12;;;;;;;31.33;16.88;;;;;;;3.22;87.20;100963.03;5053723;28;20025;-79
2023/12/08 04:45:37;;;;;;;31.67;18.75;;;;;;;3.20;86.21;100954.28;5063613;28;20041;-79
2023/12/08 04:48:03;;;;;;;28.83;17.63;;;;;;;3.23;85.58;100954.13;5053026;28;20064;-75
2023/12/08 04:50:29;;;;;;;31.05;17.40;;;;;;;3.24;85.39;100939.88;5047809;28;20494;-77
2023/12/08 04:52:54;;;;;;;28.80;17.35;;;;;;;3.27;84.83;100938.91;5047934;28;20029;-78
2023/12/08 04:55:20;;;;;;;29.42;17.92;;;;;;;3.00;84.87;100898.50;5047677;28;20028;-77
2023/12/08 04:57:45;;;;;;;33.35;18.15;;;;;;;3.30;85.07;100955.56;5047667;28;20453;-77
2023/12/08 05:00:11;;;;;;;27.65;16.73;;;;;;;3.36;84.98;100958.88;5047726;28;20025;-76
2023/12/08 05:02:37;;;;;;;29.48;18.90;;;;;;;3.38;85.25;100957.00;5047609;28;20362;-77
2023/12/08 05:05:03;;;;;;;28.83;18.58;;;;;;;3.44;84.48;100964.69;5045283;28;20078;-76
2023/12/08 05:07:29;;;;;;;32.78;19.45;;;;;;;3.56;84.42;100961.44;5047632;28;20031;-77
2023/12/08 05:09:54;;;;;;;23.88;16.98;;;;;;;3.57;84.15;100971.16;5047081;28;20022;-77
2023/12/08 05:12:20;;;;;;;37.30;19.45;;;;;;;3.47;83.45;100951.25;5047144;28;20036;-78
2023/12/08 05:14:45;;;;;;;33.33;19.27;;;;;;;3.63;83.24;100968.22;5049629;28;20115;-77
2023/12/08 05:17:11;;;;;;;24.73;16.00;;;;;;;3.68;82.68;100971.50;5051269;28;20032;-77
2023/12/08 05:19:36;;;;;;;27.02;16.13;;;;;;;3.66;83.15;100960.09;5051540;28;20044;-79
2023/12/08 05:22:04;;;;;;;25.83;15.60;;;;;;;3.73;82.58;100972.19;5051259;28;20028;-78
2023/12/08 05:24:29;;;;;;;26.30;16.90;;;;;;;3.74;82.52;100964.09;5051193;28;20072;-77
2023/12/08 05:26:55;;;;;;;27.38;16.38;;;;;;;3.47;82.55;100922.00;5051253;28;20017;-77
2023/12/08 05:29:20;;;;;;;27.10;16.77;;;;;;;3.74;82.30;100977.41;5051867;28;20036;-77
2023/12/08 05:31:46;;;;;;;27.17;17.50;;;;;;;3.82;82.06;100977.06;5051724;28;20077;-78
2023/12/08 05:34:11;;;;;;;28.17;17.42;;;;;;;3.83;82.02;100974.31;5055481;28;20097;-78
2023/12/08 05:36:37;;;;;;;31.63;17.13;;;;;;;3.70;81.94;100972.31;5060340;28;20067;-78
2023/12/08 05:39:03;;;;;;;34.38;19.33;;;;;;;3.82;81.79;100979.72;5053888;28;20032;-76
2023/12/08 05:41:28;;;;;;;36.22;18.55;;;;;;;3.87;81.24;100963.50;5051161;28;20025;-78
2023/12/08 05:43:54;;;;;;;28.73;18.08;;;;;;;3.97;81.64;100968.31;5050613;28;20151;-79
2023/12/08 05:46:19;;;;;;;28.45;18.13;;;;;;;3.90;81.33;100966.03;5051147;28;20036;-77
2023/12/08 05:48:45;;;;;;;26.33;16.05;;;;;;;3.72;81.21;100957.13;5050657;28;20075;-77
2023/12/08 05:51:10;;;;;;;55.95;16.92;;;;;;;3.81;80.57;100977.97;5051048;28;20523;-79
2023/12/08 05:53:36;;;;;;;25.23;15.52;;;;;;;3.76;80.48;100986.16;5051095;28;20496;-80
2023/12/08 05:56:02;;;;;;;25.25;15.27;;;;;;;3.72;80.85;100983.75;5050965;28;20028;-78
2023/12/08 05:58:28;;;;;;;28.48;17.42;;;;;;;3.79;80.95;100996.66;5050256;28;20037;-78
2023/12/08 06:00:54;;;;;;;25.13;15.98;;;;;;;3.73;80.70;100988.13;5050387;28;20485;-78
2023/12/08 06:03:19;;;;;;;29.52;16.77;;;;;;;3.83;80.56;101000.03;5051043;28;20029;-78
2023/12/08 06:05:45;;;;;;;31.20;19.23;;;;;;;3.76;80.19;100995.97;5050822;28;20044;-77
2023/12/08 06:08:11;;;;;;;29.23;17.05;;;;;;;3.87;80.73;100998.97;5031847;28;20186;-78
2023/12/08 06:10:36;;;;;;;28.75;16.90;;;;;;;3.81;80.78;101009.91;5050583;28;20044;-78
2023/12/08 06:13:02;;;;;;;25.13;15.35;;;;;;;3.78;80.41;101015.38;5050732;28;20033;-78
2023/12/08 06:15:27;;;;;;;26.20;16.38;;;;;;;3.73;80.65;100974.84;5050565;28;20021;-79
2023/12/08 06:17:53;;;;;;;29.40;18.27;;;;;;;3.73;80.28;100978.31;5046952;28;20667;-77
2023/12/08 06:20:18;;;;;;;32.58;20.13;;;;;;;3.83;80.35;100970.78;5050663;28;20025;-78
2023/12/08 06:22:44;;;;;;;26.08;17.45;;;;;;;4.01;80.28;100990.31;5050695;28;20029;-78
2023/12/08 06:25:09;;;;;;;31.48;17.73;;;;;;;4.01;79.71;100996.50;5054728;28;20045;-79
2023/12/08 06:27:36;;;;;;;25.98;15.93;;;;;;;3.85;79.59;100963.59;5059204;28;20460;-77
2023/12/08 06:30:02;;;;;;;27.77;17.60;;;;;;;3.82;79.69;100974.41;5051878;28;20464;-79
2023/12/08 06:32:28;;;;;;;25.98;16.85;;;;;;;4.06;79.65;101014.91;5050166;28;20033;-78
2023/12/08 06:34:54;;;;;;;33.70;19.23;;;;;;;3.92;79.06;101004.91;5050695;28;20116;-77
2023/12/08 06:37:19;;;;;;;26.90;15.77;;;;;;;3.97;79.05;101005.59;5049772;28;20464;-78
2023/12/08 06:39:45;;;;;;;25.58;16.17;;;;;;;3.72;79.23;100957.13;5050108;28;20025;-78
2023/12/08 06:42:10;;;;;;;21.48;14.68;;;;;;;4.11;79.02;101003.09;5050303;28;20023;-78
2023/12/08 06:44:36;;;;;;;26.40;15.77;;;;;;;3.97;78.64;100997.59;5049227;28;20086;-80
2023/12/08 06:47:02;;;;;;;20.83;13.90;;;;;;;3.38;77.85;100922.44;5050362;28;20021;-79
2023/12/08 06:49:27;;;;;;;25.30;15.80;;;;;;;3.88;78.00;101000.69;5049917;28;20040;-78
2023/12/08 06:51:53;;;;;;;25.55;16.13;;;;;;;4.02;78.02;101011.53;5050324;28;20040;-79
2023/12/08 06:54:18;;;;;;;26.70;17.40;;;;;;;4.07;77.93;101011.28;5049661;28;20052;-78
2023/12/08 06:56:44;;;;;;;27.42;15.25;;;;;;;4.19;77.98;101016.06;5049430;28;20021;-77
2023/12/08 06:59:10;;;;;;;31.23;16.30;;;;;;;4.12;77.93;101010.16;5049085;28;20413;-78
2023/12/08 07:01:36;;;;;;;23.25;14.45;;;;;;;3.89;77.12;100991.75;5048367;28;20021;-78
2023/12/08 07:04:03;;;;;;;27.88;14.55;;;;;;;4.03;76.82;101023.91;5049816;28;20105;-79
2023/12/08 07:06:29;;;;;;;24.55;16.58;;;;;;;4.11;77.17;101019.06;5049424;28;20171;-77
2023/12/08 07:08:55;;;;;;;41.50;17.70;;;;;;;4.03;77.32;101015.94;5050012;28;20029;-77
2023/12/08 07:11:20;;;;;;;26.23;16.35;;;;;;;4.11;77.28;101016.41;5048042;28;20032;-78
2023/12/08 07:13:46;;;;;;;32.70;18.05;;;;;;;3.96;77.19;100998.53;5049625;28;20540;-77
2023/12/08 07:16:13;;;;;;;23.50;14.82;;;;;;;4.03;76.72;100999.09;5060685;28;20033;-79
2023/12/08 07:18:38;;;;;;;27.70;16.40;;;;;;;4.19;77.18;101018.72;5061200;28;20029;-78
2023/12/08 07:21:04;;;;;;;26.83;15.80;;;;;;;4.11;76.62;101032.38;5049556;28;20091;-78
2023/12/08 07:23:30;;;;;;;26.10;15.32;;;;;;;3.85;76.09;100991.03;5049341;28;20033;-77
2023/12/08 07:25:55;;;;;;;31.67;14.73;;;;;;;3.85;76.58;100993.69;5049142;28;20041;-78
2023/12/08 07:28:21;;;;;;;30.63;16.75;;;;;;;3.89;76.71;100980.25;5049063;28;20493;-77
2023/12/08 07:30:46;;;;;;;19.73;12.77;;;;;;;3.93;76.57;101013.78;5049585;28;20029;-78
2023/12/08 07:33:12;;;;;;;20.95;13.93;;;;;;;3.64;76.36;100961.97;5049384;28;20029;-77
2023/12/08 07:35:37;;;;;;;22.75;15.40;;;;;;;3.87;76.53;100998.97;5049155;28;20028;-78
2023/12/08 07:38:03;;;;;;;24.48;15.82;;;;;;;3.52;76.51;100942.13;5048516;28;20017;-78
2023/12/08 07:40:29;;;;;;;33.38;16.83;;;;;;;3.78;76.33;100988.75;5048750;28;20033;-78
2023/12/08 07:42:55;;;;;;;23.60;14.90;;;;;;;3.81;76.50;101000.13;5048728;28;20550;-78
2023/12/08 07:45:20;;;;;;;31.55;16.75;;;;;;;3.71;76.56;100971.38;5048709;28;20025;-79
2023/12/08 07:47:47;;;;;;;40.22;18.65;;;;;;;4.04;76.79;101008.78;5048945;28;20033;-78
2023/12/08 07:50:13;;;;;;;22.85;16.20;;;;;;;4.16;77.01;101011.72;5046228;28;20509;-78
2023/12/08 07:52:41;;;;;;;26.42;16.33;;;;;;;4.09;77.07;100978.38;5048773;28;20416;-78
2023/12/08 07:55:08;;;;;;;27.42;17.40;;;;;;;4.22;76.38;101022.06;5048928;28;20378;-79
2023/12/08 07:57:34;;;;;;;26.50;15.68;;;;;;;4.16;75.85;101010.88;5048942;28;20028;-79
2023/12/08 07:59:59;;;;;;;29.45;16.95;;;;;;;4.17;76.28;100992.16;5048685;28;20028;-77
2023/12/08 08:02:25;;;;;;;21.45;13.80;;;;;;;4.21;75.40;101011.50;5048818;28;20028;-77
2023/12/08 08:04:51;;;;;;;31.27;16.35;;;;;;;4.35;75.12;101027.66;5046870;28;20404;-77
2023/12/08 08:07:16;;;;;;;24.05;15.52;;;;;;;4.38;74.64;101031.03;5062349;28;20025;-79
2023/12/08 08:09:42;;;;;;;32.20;15.40;;;;;;;4.32;74.81;101012.69;5060849;28;20083;-78
2023/12/08 08:12:09;;;;;;;25.88;16.20;;;;;;;4.38;75.05;101038.16;5048403;28;20123;-78
2023/12/08 08:14:34;;;;;;;33.78;14.00;;;;;;;4.21;74.71;101023.03;5047185;28;20037;-77
2023/12/08 08:17:01;;;;;;;27.00;14.52;;;;;;;4.25;74.41;101035.22;5048202;28;20039;-79
2023/12/08 08:19:27;;;;;;;24.98;15.73;;;;;;;4.26;74.98;101005.00;5048215;28;20029;-78
2023/12/08 08:21:53;;;;;;;35.70;18.83;;;;;;;4.51;75.47;101035.75;5048289;28;20382;-77
2023/12/08 08:24:18;;;;;;;33.35;16.02;;;;;;;4.69;75.10;101035.69;5047908;28;20033;-78
2023/12/08 08:26:44;;;;;;;29.30;15.38;;;;;;;4.66;74.25;101032.31;5048188;28;20048;-78
2023/12/08 08:29:10;;;;;;;24.17;15.20;;;;;;;4.72;73.40;101042.66;5048035;28;20027;-79
2023/12/08 08:31:36;;;;;;;30.02;15.05;;;;;;;4.79;73.10;101041.41;5048310;28;20099;-77
2023/12/08 08:34:03;;;;;;;26.88;15.85;;;;;;;4.76;72.87;101033.56;5048094;28;20513;-77
2023/12/08 08:36:29;;;;;;;22.20;13.65;;;;;;;4.76;73.21;101034.44;5048070;28;20025;-78
2023/12/08 08:38:54;;;;;;;37.72;17.23;;;;;;;4.87;72.73;101036.53;5047880;28;20028;-79
2023/12/08 08:41:21;;;;;;;29.58;15.65;;;;;;;4.98;72.29;101034.22;5047954;28;20013;-79
2023/12/08 08:43:47;;;;;;;22.92;14.32;;;;;;;5.00;72.13;101026.97;5048196;28;20033;-79
2023/12/08 08:46:13;;;;;;;22.35;15.25;;;;;;;4.83;71.83;100998.53;5047986;28;20078;-80
2023/12/08 08:48:38;;;;;;;30.70;15.15;;;;;;;4.83;71.90;101029.66;5047567;28;20045;-79
2023/12/08 08:51:04;;;;;;;22.33;14.90;;;;;;;4.65;72.24;100993.28;5048244;28;20033;-79
2023/12/08 08:53:30;;;;;;;33.38;18.40;;;;;;;4.77;72.23;101029.97;5048251;28;20473;-78
2023/12/08 08:55:56;;;;;;;37.75;17.33;;;;;;;4.82;72.30;101017.28;5048614;28;20112;-78
2023/12/08 08:58:21;;;;;;;23.95;15.60;;;;;;;4.69;72.53;101005.50;5060381;28;20527;-79
2023/12/08 09:00:47;;;;;;;26.98;15.80;;;;;;;4.83;72.65;101014.50;5058146;28;20116;-79
2023/12/08 09:03:12;;;;;;;26.55;14.38;;;;;;;4.83;72.66;101014.50;5046453;28;20029;-77
2023/12/08 09:05:41;;;;;;;29.60;16.20;;;;;;;4.81;72.86;100989.75;5047840;28;20686;-77
2023/12/08 09:08:08;;;;;;;30.88;16.83;;;;;;;4.98;72.57;100999.56;5047630;28;20033;-78
2023/12/08 09:10:34;;;;;;;27.80;16.15;;;;;;;4.83;72.44;100966.53;5047875;28;20111;-78
2023/12/08 09:13:00;;;;;;;23.10;15.85;;;;;;;4.94;72.43;100974.88;5047661;28;20029;-79
2023/12/08 09:15:25;;;;;;;21.65;15.30;;;;;;;4.99;71.88;100990.59;5047985;28;20477;-77
2023/12/08 09:17:51;;;;;;;23.55;14.82;;;;;;;4.97;71.66;100999.63;5047473;28;20032;-77
2023/12/08 09:20:17;;;;;;;33.92;15.80;;;;;;;4.83;71.79;100976.38;5047722;28;20037;-79
2023/12/08 09:22:44;;;;;;;37.88;19.95;;;;;;;4.85;71.65;100988.66;5045138;28;20041;-78
2023/12/08 09:25:09;;;;;;;23.02;15.07;;;;;;;4.68;71.79;100955.84;5047480;28;20128;-77
2023/12/08 09:27:35;;;;;;;29.63;15.15;;;;;;;4.93;71.33;101004.25;5048053;28;20336;-79
2023/12/08 09:30:01;;;;;;;21.95;14.90;;;;;;;4.73;71.25;100978.66;5047558;28;20025;-78
2023/12/08 09:32:28;;;;;;;24.73;15.48;;;;;;;4.52;71.48;100957.56;5047769;28;20485;-78
2023/12/08 09:34:53;;;;;;;25.10;16.60;;;;;;;4.54;72.11;100953.88;5046158;28;20029;-78
2023/12/08 09:37:19;;;;;;;22.10;14.32;;;;;;;4.65;71.78;100982.63;5047468;28;20095;-79
2023/12/08 09:39:44;;;;;;;26.40;14.40;;;;;;;4.61;71.67;100989.06;5047623;28;20079;-78
2023/12/08 09:42:17;;;;;;;25.20;14.98;;;;;;;4.76;71.83;100994.47;5047791;28;20021;-78
2023/12/08 09:44:43;;;;;;;20.67;13.15;;;;;;;4.73;71.32;100962.66;5047677;28;20071;-78
2023/12/08 09:47:12;;;;;;;37.25;14.20;;;;;;;4.76;70.80;100982.94;5051416;28;20028;-78
2023/12/08 09:49:44;;;;;;;25.55;13.48;;;;;;;4.68;71.09;100982.50;5058928;28;20049;-80
2023/12/08 09:52:15;;;;;;;22.63;13.88;;;;;;;4.68;71.66;100982.50;5054463;28;20477;-78
2023/12/08 09:54:41;;;;;;;20.38;13.85;;;;;;;4.83;71.82;100976.38;5047301;28;20475;-78
2023/12/08 09:57:09;;;;;;;22.90;12.63;;;;;;;4.79;70.99;100974.78;5047167;28;20029;-78
2023/12/08 09:59:38;;;;;;;19.55;13.30;;;;;;;4.63;71.01;100980.06;5047288;28;20143;-80
2023/12/08 10:02:04;;;;;;;29.25;14.20;;;;;;;4.62;71.24;100972.13;5050486;28;20029;-79
2023/12/08 10:04:30;;;;;;;37.72;15.25;;;;;;;4.71;71.46;100945.03;5050754;28;20032;-78
2023/12/08 10:06:56;;;;;;;28.08;14.10;;;;;;;4.89;71.40;100976.06;5050385;28;20029;-80
2023/12/08 10:09:22;;;;;;;19.65;13.57;;;;;;;4.94;70.68;100995.31;5050731;28;20412;-78
2023/12/08 10:11:48;;;;;;;24.67;14.30;;;;;;;4.99;70.73;100976.41;5050690;28;20025;-79
2023/12/08 10:14:14;;;;;;;29.48;15.43;;;;;;;5.02;70.80;100971.78;5050590;28;20043;-78
2023/12/08 10:16:43;;;;;;;25.17;15.85;;;;;;;5.08;70.47;100968.78;5050659;28;20021;-78
2023/12/08 10:19:09;;;;;;;41.53;15.18;;;;;;;5.14;70.39;100957.78;5050432;28;20459;-78
2023/12/08 10:21:34;;;;;;;26.60;15.70;;;;;;;5.33;70.22;100966.53;5050660;28;20021;-79
2023/12/08 10:24:01;;;;;;;24.50;16.67;;;;;;;5.39;70.24;100971.53;5050681;28;20033;-78
2023/12/08 10:26:27;;;;;;;29.90;14.57;;;;;;;5.44;69.26;100963.28;5050240;28;20048;-77
2023/12/08 10:29:00;;;;;;;22.33;15.63;;;;;;;5.41;68.98;100961.63;5050464;28;20029;-78
2023/12/08 10:31:27;;;;;;;23.25;14.38;;;;;;;5.30;68.79;100950.69;5050788;28;20025;-79
2023/12/08 10:33:54;;;;;;;22.48;15.35;;;;;;;5.23;68.47;100959.97;5050677;28;20112;-78
2023/12/08 10:36:20;;;;;;;31.13;19.92;;;;;;;5.08;69.05;100950.13;5050939;28;20043;-77
2023/12/08 10:38:49;;;;;;;24.50;13.57;;;;;;;5.00;68.83;100951.47;5058485;28;20033;-78
2023/12/08 10:41:16;;;;;;;26.02;14.65;;;;;;;5.07;69.28;100953.75;5065014;28;20062;-80
2023/12/08 10:43:43;;;;;;;25.75;15.07;;;;;;;5.05;69.59;100942.28;5052086;28;20045;-79
2023/12/08 10:46:09;;;;;;;22.50;13.85;;;;;;;5.03;69.00;100956.66;5050257;28;20178;-78
2023/12/08 10:48:37;;;;;;;23.95;14.32;;;;;;;4.89;69.41;100944.06;5050712;28;20532;-77
2023/12/08 10:51:03;;;;;;;24.80;15.35;;;;;;;4.98;69.17;100966.69;5049993;28;20036;-79
2023/12/08 10:53:29;;;;;;;22.67;14.82;;;;;;;4.93;69.82;100953.59;5050123;28;20025;-80
2023/12/08 10:56:00;;;;;;;19.77;14.38;;;;;;;4.94;69.68;100958.00;5050367;28;20044;-79
2023/12/08 10:58:28;;;;;;;23.90;14.57;;;;;;;4.88;69.39;100942.34;5050124;28;20159;-78
2023/12/08 11:00:55;;;;;;;26.98;16.48;;;;;;;4.70;69.64;100898.03;5049608;28;20052;-78
2023/12/08 11:03:22;;;;;;;36.10;15.45;;;;;;;4.93;70.28;100940.28;5049848;28;20021;-78
2023/12/08 11:06:08;;;;;;;25.48;14.52;;;;;;;4.67;69.54;100895.50;5049583;28;20033;-80
2023/12/08 11:08:35;;;;;;;25.75;14.50;;;;;;;4.91;69.67;100936.84;5049958;28;20028;-77
2023/12/08 11:11:04;;;;;;;23.67;14.48;;;;;;;4.89;69.62;100930.75;5049233;28;20520;-78